Aktuelles Wetter in Potsdam (Telegrafenberg, 81m)

Tag Datum Stunde Luftdruck Temperatur Luftfeuchte Niederschlag Windrichtung Windgeschw. Windspitzen Wolken
hPa °C % mm ° km/h km/h
Samstag, 25.02.2017, 23:30 1013.7 6.0 67 0.0 SW 23 --- bedeckt
Samstag, 25.02.2017, 23:00 1014.0 5.3 73 0.0 SW 21 35 bedeckt
Samstag, 25.02.2017, 22:30 1014.5 4.8 78 0.0 SW 18 --- bedeckt
Samstag, 25.02.2017, 22:00 1014.9 5.0 78 0.0 SW 15 35 Regen
Samstag, 25.02.2017, 21:30 1015.4 5.3 74 0.0 SW 19 --- ---
Samstag, 25.02.2017, 21:00 1015.8 4.9 77 0.0 SW 18 32 leichter Regen
Samstag, 25.02.2017, 20:30 1016.3 4.9 75 0.0 SW 18 --- leichter Regen
Samstag, 25.02.2017, 19:30 1016.9 4.9 72 0.0 SW 16 --- stark bewölkt
Samstag, 25.02.2017, 19:00 1017.2 4.7 -0.7 6.4 75 0.0 0 0
Samstag, 25.02.2017, 18:30 1017.4 4.6 75 0.0 S 15 --- stark bewölkt
Samstag, 25.02.2017, 18:00 1017.7 4.8 74 0.0 SW 14 31 stark bewölkt
Samstag, 25.02.2017, 17:30 1017.9 5.2 69 0.0 SW 16 --- stark bewölkt
Samstag, 25.02.2017, 17:00 1018.3 5.5 67 0.0 SW 22 37 stark bewölkt
Samstag, 25.02.2017, 16:30 1018.5 5.9 69 0.0 SW 12 --- stark bewölkt
Samstag, 25.02.2017, 16:00 1018.6 6.1 66 0.0 SW 15 31 stark bewölkt
Samstag, 25.02.2017, 15:30 1018.5 5.9 66 0.0 SW 14 --- stark bewölkt
Samstag, 25.02.2017, 15:00 1018.9 5.9 66 0.0 SW 17 31 stark bewölkt
Samstag, 25.02.2017, 14:30 1019.2 6.1 63 0.0 SW 16 --- ---
Samstag, 25.02.2017, 14:00 1019.6 5.9 63 0.0 SW 17 28 stark bewölkt
Samstag, 25.02.2017, 13:30 1019.7 5.5 67 0.0 SW 15 --- stark bewölkt
Samstag, 25.02.2017, 13:00 1020.1 5.4 69 0.0 SW 15 29 bewölkt